Time;durP1;ratioP1;P1;durP2;ratioP2;P2;SDS_P1;SDS_P2;PMS_P1;PMS_P2;Temp;Humidity;BMP_temperature;BMP_pressure;BME280_temperature;BME280_humidity;BME280_pressure;Samples;Min_cycle;Max_cycle;Signal;HPM_P1;HPM_P2
2023/01/09 00:00:21;;;;;;;5.20;2.50;;;6.80;99.90;;;;;;5086675;28;20044;-71
2023/01/09 00:02:47;;;;;;;5.27;2.43;;;6.80;99.90;;;;;;5089935;28;20070;-71
2023/01/09 00:05:14;;;;;;;4.83;2.97;;;6.80;99.90;;;;;;5072099;28;20044;-71
2023/01/09 00:07:40;;;;;;;5.50;2.63;;;6.90;99.90;;;;;;5052977;28;20085;-71
2023/01/09 00:10:07;;;;;;;4.83;2.73;;;6.90;99.90;;;;;;5070460;28;20130;-70
2023/01/09 00:12:34;;;;;;;5.47;2.60;;;6.90;99.90;;;;;;5074163;28;20059;-71
2023/01/09 00:14:59;;;;;;;6.93;2.70;;;6.90;99.90;;;;;;5054628;28;20059;-71
2023/01/09 00:17:25;;;;;;;5.63;2.63;;;7.00;99.90;;;;;;5053039;28;20048;-71
2023/01/09 00:19:51;;;;;;;3.77;2.20;;;7.00;99.90;;;;;;5088394;28;20276;-71
2023/01/09 00:22:17;;;;;;;4.30;2.20;;;7.00;99.90;;;;;;5063410;28;20040;-71
2023/01/09 00:24:42;;;;;;;4.13;2.50;;;7.10;99.90;;;;;;5071175;28;20044;-71
2023/01/09 00:27:08;;;;;;;4.30;2.57;;;7.10;99.90;;;;;;5055764;28;20509;-71
2023/01/09 00:29:34;;;;;;;5.23;2.20;;;7.10;99.90;;;;;;5075521;28;20193;-71
2023/01/09 00:32:00;;;;;;;6.63;2.60;;;7.20;99.90;;;;;;5053551;28;20059;-71
2023/01/09 00:34:26;;;;;;;6.97;2.90;;;7.20;99.90;;;;;;5046522;28;20036;-71
2023/01/09 00:36:54;;;;;;;5.57;2.47;;;7.20;99.90;;;;;;5073061;28;20467;-70
2023/01/09 00:39:22;;;;;;;7.13;2.57;;;7.10;99.90;;;;;;5024347;28;20058;-72
2023/01/09 00:41:54;;;;;;;3.93;3.13;;;7.10;99.90;;;;;;5056243;28;20120;-71
2023/01/09 00:44:27;;;;;;;4.07;2.67;;;7.10;99.90;;;;;;5067887;28;20074;-71
2023/01/09 00:46:57;;;;;;;7.57;3.10;;;7.10;99.90;;;;;;5057900;28;20522;-71
2023/01/09 00:49:24;;;;;;;6.53;3.00;;;7.10;99.90;;;;;;5057034;28;20132;-71
2023/01/09 00:51:52;;;;;;;4.07;2.77;;;7.20;99.90;;;;;;5041266;28;20051;-71
2023/01/09 00:54:18;;;;;;;3.40;1.87;;;7.20;99.90;;;;;;5070941;28;20106;-71
2023/01/09 00:56:45;;;;;;;2.87;1.40;;;7.20;99.90;;;;;;5053573;28;20056;-71
2023/01/09 00:59:10;;;;;;;2.47;1.50;;;7.20;99.90;;;;;;5072398;28;20150;-71
2023/01/09 01:01:36;;;;;;;2.57;1.50;;;7.20;99.90;;;;;;5071858;28;20086;-70
2023/01/09 01:09:30;;;;;;;2.90;1.37;;;7.00;99.90;;;;;;5075361;28;20051;-71
2023/01/09 01:11:56;;;;;;;3.10;1.40;;;7.00;99.90;;;;;;5053824;28;20067;-71
2023/01/09 01:14:22;;;;;;;4.50;1.70;;;6.90;99.90;;;;;;5072641;28;20044;-71
2023/01/09 01:16:47;;;;;;;3.10;1.20;;;6.90;99.90;;;;;;5084773;28;20650;-71
2023/01/09 01:19:13;;;;;;;1.30;1.00;;;6.90;99.90;;;;;;5089294;28;20052;-71
2023/01/09 01:21:39;;;;;;;2.43;1.10;;;6.80;99.90;;;;;;5089162;28;20048;-71
2023/01/09 01:24:05;;;;;;;3.07;1.10;;;6.80;99.90;;;;;;5093489;28;20044;-71
2023/01/09 01:26:30;;;;;;;2.63;1.30;;;6.80;99.90;;;;;;5089275;28;20036;-71
2023/01/09 01:28:58;;;;;;;2.10;1.30;;;6.80;99.90;;;;;;5062319;28;20035;-71
2023/01/09 01:31:24;;;;;;;2.70;1.20;;;6.70;99.90;;;;;;5075321;28;20089;-71
2023/01/09 01:33:49;;;;;;;2.20;1.03;;;6.70;99.90;;;;;;5088159;28;20549;-71
2023/01/09 01:36:16;;;;;;;1.70;1.20;;;6.70;99.90;;;;;;5091500;28;20052;-71
2023/01/09 01:38:42;;;;;;;2.30;1.50;;;6.70;99.90;;;;;;5071595;28;20135;-71
2023/01/09 01:41:09;;;;;;;1.70;1.13;;;6.70;99.90;;;;;;5093996;28;20040;-71
2023/01/09 01:44:27;;;;;;;1.20;0.90;;;6.70;99.90;;;;;;5090416;28;20045;-71
2023/01/09 01:46:53;;;;;;;2.30;1.27;;;6.60;99.90;;;;;;5041699;28;20308;-70
2023/01/09 01:49:20;;;;;;;1.70;1.47;;;6.60;99.90;;;;;;5094198;28;20657;-71
2023/01/09 01:51:51;;;;;;;4.97;1.40;;;6.60;99.90;;;;;;5074119;28;20068;-71
2023/01/09 01:54:24;;;;;;;2.83;1.13;;;6.60;99.90;;;;;;5049220;28;20109;-71
2023/01/09 01:56:55;;;;;;;1.67;1.10;;;6.60;99.90;;;;;;5075231;28;20412;-70
2023/01/09 01:59:41;;;;;;;2.55;1.30;;;6.60;99.90;;;;;;5088648;28;20041;-71
2023/01/09 02:02:08;;;;;;;2.40;1.20;;;6.50;99.90;;;;;;5092481;28;20047;-71
2023/01/09 02:04:38;;;;;;;3.77;1.40;;;6.50;99.90;;;;;;5092133;28;20049;-71
2023/01/09 02:07:08;;;;;;;4.10;1.40;;;6.50;99.90;;;;;;5092856;28;20625;-71
2023/01/09 02:09:35;;;;;;;2.20;1.30;;;6.50;99.90;;;;;;5092501;28;20039;-70
2023/01/09 02:12:01;;;;;;;3.30;1.30;;;6.50;99.90;;;;;;5090224;28;20052;-71
2023/01/09 02:14:31;;;;;;;3.00;1.50;;;6.50;99.90;;;;;;5090513;28;20044;-70
2023/01/09 02:16:59;;;;;;;1.80;1.67;;;6.60;99.90;;;;;;5085392;28;20052;-71
2023/01/09 02:19:57;;;;;;;4.80;1.80;;;6.60;99.90;;;;;;5076151;28;20510;-71
2023/01/09 02:22:46;;;;;;;3.40;1.90;;;6.60;99.90;;;;;;5087916;28;20044;-71
2023/01/09 02:25:41;;;;;;;4.53;2.30;;;6.60;99.90;;;;;;5090671;28;20610;-71
2023/01/09 02:28:19;;;;;;;5.23;2.40;;;6.70;99.90;;;;;;5090414;28;20044;-71
2023/01/09 02:30:48;;;;;;;3.50;2.27;;;6.70;99.90;;;;;;5088367;28;20044;-71
2023/01/09 02:33:35;;;;;;;4.97;2.60;;;6.70;99.90;;;;;;5093186;28;20075;-71
2023/01/09 02:36:14;;;;;;;2.80;2.60;;;6.70;99.90;;;;;;5075605;28;20405;-70
2023/01/09 02:39:14;;;;;;;3.80;3.27;;;6.60;99.90;;;;;;5088753;28;20509;-71
2023/01/09 02:41:55;;;;;;;4.63;3.20;;;6.70;99.90;;;;;;5073536;28;20086;-71
2023/01/09 02:44:33;;;;;;;3.90;3.17;;;6.70;99.90;;;;;;5086838;28;20123;-70
2023/01/09 02:47:26;;;;;;;6.20;3.67;;;6.70;99.90;;;;;;5089794;28;20515;-71
2023/01/09 02:49:56;;;;;;;6.23;3.87;;;6.70;99.90;;;;;;5093608;28;20040;-71
2023/01/09 02:52:44;;;;;;;7.97;3.83;;;6.70;99.90;;;;;;5088742;28;20431;-71
2023/01/09 02:55:28;;;;;;;4.13;3.23;;;6.60;99.90;;;;;;5091029;28;20526;-71
2023/01/09 02:58:20;;;;;;;6.20;3.10;;;6.60;99.90;;;;;;5088833;28;20135;-70
2023/01/09 03:01:07;;;;;;;6.50;3.50;;;6.60;99.90;;;;;;5069990;28;20040;-71
2023/01/09 03:03:59;;;;;;;6.30;3.17;;;6.50;99.90;;;;;;5088297;28;20051;-71
2023/01/09 03:06:50;;;;;;;6.23;3.53;;;6.50;99.90;;;;;;5092406;28;20060;-70
2023/01/09 03:09:21;;;;;;;8.07;3.65;;;6.40;99.90;;;;;;5086382;28;20283;-71
2023/01/09 03:11:51;;;;;;;6.60;3.63;;;6.40;99.90;;;;;;5091060;28;20040;-71
2023/01/09 03:14:21;;;;;;;5.20;3.43;;;6.40;99.90;;;;;;5089799;28;20040;-70
2023/01/09 03:16:51;;;;;;;7.20;3.70;;;6.30;99.90;;;;;;5087068;28;20048;-71
2023/01/09 03:19:20;;;;;;;7.40;3.63;;;6.30;99.90;;;;;;5087539;28;20105;-71
2023/01/09 03:21:47;;;;;;;6.10;3.53;;;6.30;99.90;;;;;;5089921;28;20036;-71
2023/01/09 03:24:13;;;;;;;7.17;3.60;;;6.20;99.90;;;;;;5072381;28;20126;-71
2023/01/09 03:26:39;;;;;;;8.83;3.77;;;6.20;99.90;;;;;;5089802;28;20083;-71
2023/01/09 03:29:05;;;;;;;8.17;3.80;;;6.20;99.90;;;;;;5073870;28;20050;-71
2023/01/09 03:31:30;;;;;;;5.77;3.30;;;6.20;99.90;;;;;;5070555;28;20044;-71
2023/01/09 03:33:56;;;;;;;10.13;3.87;;;6.10;99.90;;;;;;5072940;28;20036;-71
2023/01/09 03:36:23;;;;;;;7.00;3.40;;;6.10;99.90;;;;;;5085360;28;20044;-70
2023/01/09 03:38:50;;;;;;;6.13;3.60;;;6.00;99.90;;;;;;5088514;28;20043;-71
2023/01/09 03:41:18;;;;;;;7.33;3.83;;;6.00;99.90;;;;;;5073729;28;20050;-71
2023/01/09 03:43:44;;;;;;;9.50;3.80;;;6.00;99.90;;;;;;5088745;28;20059;-72
2023/01/09 03:46:09;;;;;;;8.00;3.87;;;5.90;99.90;;;;;;5073459;28;20131;-71
2023/01/09 03:48:35;;;;;;;7.07;3.60;;;5.90;99.90;;;;;;5057176;28;20129;-70
2023/01/09 03:51:01;;;;;;;5.87;3.60;;;5.90;99.90;;;;;;5072547;28;20098;-71
2023/01/09 03:53:27;;;;;;;8.63;3.70;;;5.80;99.90;;;;;;5071321;28;20409;-71
2023/01/09 03:55:55;;;;;;;6.83;3.60;;;5.80;99.90;;;;;;5085866;28;20142;-71
2023/01/09 03:58:21;;;;;;;7.03;3.57;;;5.70;99.90;;;;;;5076600;28;20529;-71
2023/01/09 04:00:48;;;;;;;7.20;3.97;;;5.70;99.90;;;;;;5086301;28;20044;-70
2023/01/09 04:03:15;;;;;;;6.43;3.67;;;5.70;99.90;;;;;;5088895;28;20044;-71
2023/01/09 04:05:42;;;;;;;5.70;3.93;;;5.60;99.90;;;;;;5090519;28;20893;-71
2023/01/09 04:08:08;;;;;;;7.90;4.07;;;5.60;99.90;;;;;;5073345;28;20059;-71
2023/01/09 04:10:34;;;;;;;5.60;4.17;;;5.60;99.90;;;;;;5054301;28;20044;-71
2023/01/09 04:12:59;;;;;;;6.83;3.83;;;5.50;99.90;;;;;;5053657;28;20050;-71
2023/01/09 04:15:25;;;;;;;8.90;4.40;;;5.50;99.90;;;;;;5043269;28;20084;-71
2023/01/09 04:17:51;;;;;;;6.03;4.67;;;5.40;99.90;;;;;;5071369;28;20052;-71
2023/01/09 04:20:17;;;;;;;7.47;4.40;;;5.40;99.90;;;;;;5076247;28;20561;-70
2023/01/09 04:22:43;;;;;;;8.67;4.80;;;5.40;99.90;;;;;;5069442;28;20044;-71
2023/01/09 04:25:09;;;;;;;7.23;4.70;;;5.30;99.90;;;;;;5071066;28;20052;-71
2023/01/09 04:27:35;;;;;;;9.80;5.10;;;5.30;99.90;;;;;;5075123;28;20040;-71
2023/01/09 04:30:00;;;;;;;8.77;5.33;;;5.30;99.90;;;;;;5037817;28;20059;-71
2023/01/09 04:32:26;;;;;;;7.67;5.70;;;5.30;99.90;;;;;;5056931;28;20043;-71
2023/01/09 04:34:56;;;;;;;10.03;6.27;;;5.30;99.90;;;;;;5074409;28;20052;-71
2023/01/09 04:37:22;;;;;;;10.47;5.50;;;5.30;99.90;;;;;;5066426;28;20053;-71
2023/01/09 04:39:50;;;;;;;12.47;6.00;;;5.30;99.90;;;;;;5054878;28;20040;-71
2023/01/09 04:42:16;;;;;;;11.80;6.73;;;5.30;99.90;;;;;;5092410;28;20052;-70
2023/01/09 04:44:41;;;;;;;12.87;7.47;;;5.30;99.90;;;;;;5052289;28;20147;-70
2023/01/09 04:47:07;;;;;;;9.67;7.47;;;5.30;99.90;;;;;;5067515;28;20061;-71
2023/01/09 04:49:33;;;;;;;14.70;8.53;;;5.30;99.90;;;;;;5057859;28;20048;-71
2023/01/09 04:51:58;;;;;;;14.07;8.63;;;5.30;99.90;;;;;;5072336;28;20048;-71
2023/01/09 04:54:24;;;;;;;14.90;10.00;;;5.30;99.90;;;;;;5070564;28;20048;-71
2023/01/09 04:56:50;;;;;;;15.20;9.50;;;5.20;99.90;;;;;;5088548;28;20067;-69
2023/01/09 04:59:15;;;;;;;15.90;9.97;;;5.20;99.90;;;;;;5079406;28;20060;-70
2023/01/09 05:01:41;;;;;;;15.43;10.13;;;5.20;99.90;;;;;;5059019;28;20514;-69
2023/01/09 05:04:07;;;;;;;14.50;9.80;;;5.20;99.90;;;;;;5077236;28;20051;-69
2023/01/09 05:06:33;;;;;;;15.07;10.50;;;5.20;99.90;;;;;;5070652;28;20062;-69
2023/01/09 05:08:59;;;;;;;16.67;11.00;;;5.30;99.90;;;;;;5091607;28;20127;-70
2023/01/09 05:11:26;;;;;;;18.57;11.20;;;5.30;99.90;;;;;;5077998;28;20043;-70
2023/01/09 05:13:52;;;;;;;17.87;11.70;;;5.30;99.90;;;;;;5074564;28;20048;-69
2023/01/09 05:16:18;;;;;;;17.93;12.23;;;5.40;99.90;;;;;;5108996;28;20075;-70
2023/01/09 05:18:44;;;;;;;23.37;13.70;;;5.40;99.90;;;;;;5059779;28;20035;-69
2023/01/09 05:21:10;;;;;;;19.37;12.37;;;5.40;99.90;;;;;;5111575;28;20069;-70
2023/01/09 05:23:36;;;;;;;23.23;13.47;;;5.50;99.90;;;;;;5078646;28;20071;-70
2023/01/09 05:26:03;;;;;;;23.83;13.97;;;5.50;99.90;;;;;;5094137;28;20083;-70
2023/01/09 05:28:30;;;;;;;20.67;13.73;;;5.50;99.90;;;;;;5112500;28;20040;-69
2023/01/09 05:30:56;;;;;;;25.33;14.10;;;5.60;99.90;;;;;;5093825;28;20043;-69
2023/01/09 05:33:22;;;;;;;20.83;14.27;;;5.60;99.90;;;;;;5078230;28;20479;-69
2023/01/09 05:35:47;;;;;;;25.10;14.43;;;5.60;99.90;;;;;;5062951;28;20185;-70
2023/01/09 05:38:13;;;;;;;26.17;15.53;;;5.60;99.90;;;;;;5075289;28;20522;-69
2023/01/09 05:40:39;;;;;;;26.93;15.97;;;5.60;99.90;;;;;;5095899;28;20032;-69
2023/01/09 05:43:04;;;;;;;24.90;16.57;;;5.70;99.90;;;;;;5091561;28;20140;-70
2023/01/09 05:45:30;;;;;;;24.23;15.40;;;5.70;99.90;;;;;;5094660;28;20040;-69
2023/01/09 05:47:56;;;;;;;23.77;16.20;;;5.70;99.90;;;;;;5093836;28;20036;-70
2023/01/09 05:50:22;;;;;;;23.83;15.07;;;5.70;99.90;;;;;;5098174;28;20033;-70
2023/01/09 05:52:47;;;;;;;23.67;14.97;;;5.70;99.90;;;;;;5078180;28;20410;-69
2023/01/09 05:55:13;;;;;;;22.90;15.00;;;5.70;99.90;;;;;;5094240;28;20047;-70
2023/01/09 05:57:39;;;;;;;24.07;14.80;;;5.80;99.90;;;;;;5093566;28;20126;-69
2023/01/09 06:00:06;;;;;;;23.67;14.80;;;5.80;99.90;;;;;;5093091;28;20585;-70
2023/01/09 06:02:31;;;;;;;22.90;14.10;;;5.80;99.90;;;;;;5093496;28;20108;-70
2023/01/09 06:04:57;;;;;;;25.47;14.17;;;5.80;99.90;;;;;;5079512;28;20044;-70
2023/01/09 06:07:23;;;;;;;20.73;13.23;;;5.80;99.90;;;;;;5075586;28;20062;-69
2023/01/09 06:09:49;;;;;;;22.70;14.57;;;5.80;99.90;;;;;;5076146;28;20380;-69
2023/01/09 06:12:14;;;;;;;18.27;12.00;;;5.80;99.90;;;;;;5094473;28;20063;-70
2023/01/09 06:14:40;;;;;;;20.60;13.67;;;5.80;99.90;;;;;;5055251;28;20051;-70
2023/01/09 06:17:06;;;;;;;22.07;12.93;;;5.80;99.90;;;;;;5112476;28;20399;-70
2023/01/09 06:19:31;;;;;;;19.80;13.43;;;5.80;99.90;;;;;;5081856;28;20043;-71
2023/01/09 06:21:57;;;;;;;21.07;12.80;;;5.80;99.90;;;;;;5076926;28;20039;-70
2023/01/09 06:24:23;;;;;;;19.00;12.30;;;5.80;99.90;;;;;;5070693;28;20630;-69
2023/01/09 06:26:49;;;;;;;22.17;12.30;;;5.80;99.90;;;;;;5112997;28;20063;-69
2023/01/09 06:29:15;;;;;;;17.80;12.57;;;5.90;99.90;;;;;;5096028;28;20047;-70
2023/01/09 06:31:40;;;;;;;19.53;12.77;;;5.80;99.90;;;;;;5061754;28;20070;-70
2023/01/09 06:34:07;;;;;;;20.40;12.80;;;5.80;99.90;;;;;;5075694;28;20040;-70
2023/01/09 06:36:33;;;;;;;17.23;11.30;;;5.80;99.90;;;;;;5055390;28;20047;-69
2023/01/09 06:38:59;;;;;;;21.47;12.10;;;5.80;99.90;;;;;;5093181;28;20046;-69
2023/01/09 06:41:24;;;;;;;17.40;11.77;;;5.80;99.90;;;;;;5095991;28;20047;-70
2023/01/09 06:43:50;;;;;;;17.80;11.67;;;5.80;99.90;;;;;;5096008;28;20137;-69
2023/01/09 06:46:16;;;;;;;18.67;10.70;;;5.80;99.90;;;;;;5096614;28;20066;-70
2023/01/09 06:48:41;;;;;;;17.77;11.10;;;5.80;99.90;;;;;;5094682;28;20108;-69
2023/01/09 06:51:07;;;;;;;16.97;10.00;;;5.80;99.90;;;;;;5092819;28;20399;-69
2023/01/09 06:53:33;;;;;;;16.43;11.20;;;5.80;99.90;;;;;;5097265;28;20048;-69
2023/01/09 06:56:01;;;;;;;16.93;10.60;;;5.80;99.90;;;;;;5111183;28;20044;-69
2023/01/09 06:58:27;;;;;;;16.13;10.30;;;5.80;99.90;;;;;;5094798;28;20039;-69
2023/01/09 07:00:55;;;;;;;16.13;9.63;;;5.80;99.90;;;;;;5095904;28;20128;-69
2023/01/09 07:03:21;;;;;;;15.27;9.73;;;5.80;99.90;;;;;;5094674;28;20047;-69
2023/01/09 07:05:48;;;;;;;15.60;9.70;;;5.80;99.90;;;;;;5075515;28;20051;-69
2023/01/09 07:08:14;;;;;;;15.40;9.10;;;5.80;99.90;;;;;;5088396;28;20039;-71
2023/01/09 07:10:43;;;;;;;13.77;8.63;;;5.80;99.90;;;;;;5051907;28;20043;-69
2023/01/09 07:13:09;;;;;;;15.37;8.17;;;5.80;99.90;;;;;;5074935;28;20043;-75
2023/01/09 07:15:35;;;;;;;10.63;7.87;;;5.70;99.90;;;;;;5072873;28;20052;-68
2023/01/09 07:18:02;;;;;;;10.53;7.93;;;5.70;99.90;;;;;;5087197;28;20056;-67
2023/01/09 07:20:27;;;;;;;13.30;8.57;;;5.70;99.90;;;;;;5061634;28;20042;-66
2023/01/09 07:22:53;;;;;;;14.40;9.00;;;5.70;99.90;;;;;;5061016;28;21135;-66
2023/01/09 07:25:19;;;;;;;11.50;8.17;;;5.70;99.90;;;;;;5077962;28;21027;-67
2023/01/09 07:27:45;;;;;;;15.23;8.20;;;5.60;99.90;;;;;;5079359;28;20055;-67
2023/01/09 07:30:11;;;;;;;13.00;8.07;;;5.60;99.90;;;;;;5059322;28;20036;-66
2023/01/09 07:32:39;;;;;;;13.83;8.43;;;5.50;99.90;;;;;;5080002;28;20123;-66
2023/01/09 07:35:08;;;;;;;11.97;7.70;;;5.50;99.90;;;;;;5093607;28;20051;-66
2023/01/09 07:37:34;;;;;;;10.97;7.97;;;5.40;99.90;;;;;;5063449;28;20044;-66
2023/01/09 07:40:00;;;;;;;12.67;8.10;;;5.40;99.90;;;;;;5079198;28;20394;-66
2023/01/09 07:42:26;;;;;;;10.93;7.73;;;5.30;99.90;;;;;;5084627;28;20097;-67
2023/01/09 07:44:51;;;;;;;13.93;8.20;;;5.40;99.90;;;;;;5091484;28;20038;-67
2023/01/09 07:47:17;;;;;;;12.70;7.50;;;5.40;99.90;;;;;;5061327;28;20426;-67
2023/01/09 07:49:43;;;;;;;11.77;7.00;;;5.40;99.90;;;;;;5079343;28;20136;-67
2023/01/09 07:52:08;;;;;;;8.40;6.30;;;5.40;99.90;;;;;;5077701;28;20043;-67
2023/01/09 07:54:34;;;;;;;11.97;6.50;;;5.40;99.90;;;;;;5086798;28;20050;-67
2023/01/09 07:57:00;;;;;;;10.93;6.90;;;5.40;99.90;;;;;;5078668;28;20082;-67
2023/01/09 07:59:28;;;;;;;12.07;6.43;;;5.40;99.90;;;;;;5079269;28;20047;-67
2023/01/09 08:01:54;;;;;;;8.70;5.87;;;5.40;99.90;;;;;;5079953;28;20051;-67
2023/01/09 08:04:20;;;;;;;9.40;5.70;;;5.40;99.90;;;;;;5059907;28;20054;-66
2023/01/09 08:06:46;;;;;;;11.60;6.30;;;5.40;99.90;;;;;;5087091;28;20043;-67
2023/01/09 08:09:12;;;;;;;10.00;5.13;;;5.40;99.90;;;;;;5079886;28;20063;-67
2023/01/09 08:11:38;;;;;;;11.90;5.70;;;5.40;99.90;;;;;;5087471;28;21650;-67
2023/01/09 08:14:04;;;;;;;10.17;5.23;;;5.40;99.90;;;;;;5094586;28;20911;-66
2023/01/09 08:16:29;;;;;;;12.07;5.23;;;5.50;99.90;;;;;;5037503;28;20143;-67
2023/01/09 08:18:55;;;;;;;9.13;5.23;;;5.50;99.90;;;;;;5061081;28;20041;-67
2023/01/09 08:21:21;;;;;;;8.53;4.80;;;5.60;99.90;;;;;;5067434;28;20526;-68
2023/01/09 08:23:46;;;;;;;10.53;5.17;;;5.60;99.90;;;;;;5063861;28;20075;-68
2023/01/09 08:26:12;;;;;;;11.27;5.43;;;5.60;99.90;;;;;;5065425;28;20075;-68
2023/01/09 08:28:38;;;;;;;8.63;5.40;;;5.70;99.90;;;;;;5062860;28;20045;-73
2023/01/09 08:31:03;;;;;;;12.27;4.90;;;5.70;99.90;;;;;;5062078;28;20055;-68
2023/01/09 08:33:31;;;;;;;10.53;5.07;;;5.70;99.90;;;;;;5049138;28;20048;-68
2023/01/09 08:35:57;;;;;;;10.60;5.67;;;5.70;99.90;;;;;;5065097;28;20054;-68
2023/01/09 08:38:22;;;;;;;11.93;5.70;;;5.80;99.90;;;;;;5064029;28;20052;-68
2023/01/09 08:40:48;;;;;;;9.87;5.40;;;5.80;99.90;;;;;;5065796;28;20187;-68
2023/01/09 08:48:43;;;;;;;7.90;4.83;;;5.90;99.90;;;;;;5078795;28;20052;-70
2023/01/09 08:51:09;;;;;;;9.03;4.80;;;5.90;99.90;;;;;;5061577;28;20045;-68
2023/01/09 08:53:35;;;;;;;8.97;5.20;;;5.90;99.90;;;;;;5064497;28;20555;-67
2023/01/09 08:56:01;;;;;;;9.33;4.93;;;5.90;99.90;;;;;;5063136;28;20036;-68
2023/01/09 08:58:27;;;;;;;10.47;5.20;;;5.90;99.90;;;;;;5065029;28;20591;-68
2023/01/09 09:00:52;;;;;;;9.83;4.83;;;6.00;99.90;;;;;;5063879;28;20076;-68
2023/01/09 09:03:18;;;;;;;9.53;4.57;;;6.00;99.90;;;;;;5063404;28;20640;-68
2023/01/09 09:05:44;;;;;;;9.17;4.70;;;6.00;99.90;;;;;;5064818;28;20044;-68
2023/01/09 09:08:10;;;;;;;8.37;4.43;;;6.10;99.90;;;;;;5065118;28;20040;-68
2023/01/09 09:10:35;;;;;;;8.67;4.63;;;6.10;99.90;;;;;;5066145;28;20049;-68
2023/01/09 09:13:01;;;;;;;10.70;4.90;;;6.10;99.90;;;;;;5061965;28;20037;-68
2023/01/09 09:15:27;;;;;;;8.70;4.93;;;6.10;99.90;;;;;;5073020;28;20060;-68
2023/01/09 09:18:01;;;;;;;12.07;5.13;;;6.10;99.90;;;;;;5096606;28;20949;-68
2023/01/09 09:20:33;;;;;;;9.13;5.07;;;6.20;99.90;;;;;;5091932;28;20067;-70
2023/01/09 09:22:59;;;;;;;11.15;5.00;;;6.20;99.90;;;;;;5087722;28;20047;-68
2023/01/09 09:25:25;;;;;;;13.93;5.53;;;6.20;99.90;;;;;;5065406;28;20043;-68
2023/01/09 09:27:51;;;;;;;10.07;5.00;;;6.30;99.90;;;;;;5091110;28;20044;-68
2023/01/09 09:30:18;;;;;;;10.93;5.57;;;6.30;99.90;;;;;;5083991;28;20118;-68
2023/01/09 09:32:44;;;;;;;10.30;5.33;;;6.30;99.90;;;;;;5087391;28;20162;-68
2023/01/09 09:35:10;;;;;;;13.10;5.50;;;6.40;99.90;;;;;;5084417;28;20546;-68
2023/01/09 09:37:36;;;;;;;6.80;4.80;;;6.40;99.90;;;;;;5051122;28;20055;-68
2023/01/09 09:40:03;;;;;;;9.70;5.17;;;6.50;99.90;;;;;;5070228;28;20074;-70
2023/01/09 09:46:00;;;;;;;10.88;4.95;;;6.50;99.90;;;;;;5072400;28;20457;-68
2023/01/09 09:48:37;;;;;;;9.40;4.87;;;6.50;99.90;;;;;;5076769;28;20067;-68
2023/01/09 09:51:20;;;;;;;13.70;5.07;;;6.50;99.90;;;;;;5086644;28;20040;-68
2023/01/09 09:54:06;;;;;;;10.10;4.88;;;6.60;99.90;;;;;;5092341;28;20932;-68
2023/01/09 09:56:39;;;;;;;10.80;4.97;;;6.60;99.90;;;;;;5087389;28;20074;-68
2023/01/09 09:59:20;;;;;;;9.80;5.10;;;6.60;99.90;;;;;;5069397;28;20058;-68
2023/01/09 10:01:54;;;;;;;10.23;4.87;;;6.60;99.90;;;;;;5074935;28;20043;-68
2023/01/09 10:04:23;;;;;;;11.30;5.20;;;6.60;99.90;;;;;;5084907;28;20094;-68
2023/01/09 10:06:55;;;;;;;8.60;5.20;;;6.60;99.90;;;;;;5085111;28;20064;-68
2023/01/09 10:09:39;;;;;;;10.50;4.90;;;6.60;99.90;;;;;;5084623;28;20169;-68
2023/01/09 10:12:14;;;;;;;10.37;5.00;;;6.60;99.90;;;;;;5097169;28;20634;-68
2023/01/09 10:14:40;;;;;;;13.37;5.13;;;6.60;99.90;;;;;;5088331;28;20055;-68
2023/01/09 10:17:24;;;;;;;8.03;4.67;;;6.70;99.90;;;;;;5063673;28;20530;-68
2023/01/09 10:20:05;;;;;;;9.87;5.07;;;6.70;99.90;;;;;;5088314;28;20522;-68
2023/01/09 10:22:59;;;;;;;7.93;5.10;;;6.70;99.90;;;;;;5088665;28;20194;-68
2023/01/09 10:25:31;;;;;;;7.13;4.57;;;6.80;99.90;;;;;;5084571;28;20544;-68
2023/01/09 10:28:19;;;;;;;8.90;4.28;;;6.90;99.90;;;;;;5081773;28;20059;-68
2023/01/09 10:31:08;;;;;;;10.87;5.07;;;6.90;99.90;;;;;;5079007;28;20063;-68
2023/01/09 10:33:52;;;;;;;10.23;5.23;;;7.00;99.90;;;;;;5083221;28;20048;-68
2023/01/09 10:36:24;;;;;;;10.93;5.07;;;7.10;99.90;;;;;;5081784;28;20052;-68
2023/01/09 10:38:53;;;;;;;9.30;4.78;;;7.10;99.90;;;;;;5081431;28;20047;-68
2023/01/09 10:41:32;;;;;;;6.13;4.73;;;7.10;99.90;;;;;;5067572;28;20050;-68
2023/01/09 10:44:11;;;;;;;8.13;4.60;;;7.10;99.90;;;;;;5087710;28;20765;-68
2023/01/09 10:46:44;;;;;;;8.93;5.43;;;7.10;99.90;;;;;;5084950;28;20052;-69
2023/01/09 10:49:14;;;;;;;7.47;4.40;;;7.10;99.90;;;;;;5082305;28;20117;-68
2023/01/09 10:51:50;;;;;;;7.97;4.80;;;7.10;99.90;;;;;;5089064;28;20082;-74
2023/01/09 10:54:22;;;;;;;8.10;4.70;;;7.10;99.90;;;;;;5061417;28;21222;-68
2023/01/09 10:57:08;;;;;;;5.22;4.32;;;7.10;99.90;;;;;;5065776;28;20118;-67
2023/01/09 10:59:34;;;;;;;7.57;4.77;;;7.10;99.90;;;;;;5055825;28;20369;-67
2023/01/09 11:02:02;;;;;;;7.30;4.73;;;7.10;99.90;;;;;;5064225;28;20114;-67
2023/01/09 11:04:36;;;;;;;10.07;5.03;;;7.00;99.90;;;;;;5057700;28;20053;-67
2023/01/09 11:07:04;;;;;;;10.73;4.93;;;7.10;99.90;;;;;;5061324;28;20322;-68
2023/01/09 11:09:56;;;;;;;10.60;4.60;;;7.10;99.90;;;;;;5065608;28;20044;-67
2023/01/09 11:12:27;;;;;;;8.82;4.68;;;7.10;99.90;;;;;;5058772;28;20052;-67
2023/01/09 11:14:53;;;;;;;6.15;4.22;;;7.00;99.90;;;;;;5063879;28;20040;-67
2023/01/09 11:17:25;;;;;;;8.97;5.10;;;7.00;99.90;;;;;;5064857;28;20049;-67
2023/01/09 11:20:11;;;;;;;6.63;4.50;;;7.00;99.90;;;;;;5078336;28;20147;-67
2023/01/09 11:22:52;;;;;;;8.40;4.63;;;7.00;99.90;;;;;;5067137;28;20566;-67
2023/01/09 11:25:19;;;;;;;10.10;4.87;;;7.00;99.90;;;;;;5068801;28;20032;-67
2023/01/09 11:28:05;;;;;;;8.27;5.30;;;7.00;99.90;;;;;;5063891;28;20057;-67
2023/01/09 11:30:35;;;;;;;7.00;4.80;;;7.10;99.90;;;;;;5063342;28;20131;-67
2023/01/09 11:33:17;;;;;;;10.10;5.07;;;7.10;99.90;;;;;;5067593;28;20101;-67
2023/01/09 11:36:04;;;;;;;7.07;4.90;;;7.20;99.90;;;;;;5036896;28;20048;-67
2023/01/09 11:38:43;;;;;;;8.50;5.00;;;7.20;99.90;;;;;;5060535;28;20062;-67
2023/01/09 11:41:16;;;;;;;8.67;5.13;;;7.20;99.90;;;;;;5064216;28;20151;-67
2023/01/09 11:43:45;;;;;;;9.00;4.77;;;7.30;99.90;;;;;;5062143;28;20103;-67
2023/01/09 11:46:40;;;;;;;7.80;4.67;;;7.30;99.90;;;;;;5046574;28;20167;-67
2023/01/09 11:49:15;;;;;;;6.87;5.00;;;7.30;99.90;;;;;;5046290;28;20064;-67
2023/01/09 11:51:41;;;;;;;8.60;4.97;;;7.30;99.90;;;;;;5044780;28;20052;-67
2023/01/09 11:54:19;;;;;;;8.10;5.53;;;7.30;99.90;;;;;;5063486;28;20135;-67
2023/01/09 11:56:46;;;;;;;10.73;5.53;;;7.30;99.90;;;;;;5064897;28;20620;-67
2023/01/09 11:59:14;;;;;;;8.10;5.70;;;7.30;99.90;;;;;;5067501;28;20058;-68
2023/01/09 12:02:05;;;;;;;11.13;5.57;;;7.20;99.90;;;;;;5055067;28;20058;-68
2023/01/09 12:04:52;;;;;;;10.23;5.53;;;7.20;99.90;;;;;;5065135;28;20052;-68
2023/01/09 12:07:38;;;;;;;9.87;6.03;;;7.20;99.90;;;;;;5061914;28;20048;-68
2023/01/09 12:10:50;;;;;;;9.83;5.93;;;7.20;99.90;;;;;;5063121;28;20055;-67
2023/01/09 12:13:59;;;;;;;8.07;6.27;;;7.20;99.90;;;;;;4964978;28;20861;-67
2023/01/09 12:16:46;;;;;;;7.97;6.13;;;7.20;99.90;;;;;;4991038;28;20559;-67
2023/01/09 12:19:44;;;;;;;13.97;6.93;;;7.20;99.90;;;;;;5102300;27;20841;-68
2023/01/09 12:22:27;;;;;;;10.77;6.67;;;7.20;99.90;;;;;;5098287;28;20063;-68
2023/01/09 12:25:22;;;;;;;9.93;6.80;;;7.20;99.90;;;;;;5100496;28;20450;-68
2023/01/09 12:28:06;;;;;;;10.87;7.47;;;7.20;99.90;;;;;;5100781;28;20048;-68
2023/01/09 12:31:00;;;;;;;9.40;6.80;;;7.30;99.90;;;;;;5100269;28;20605;-69
2023/01/09 12:33:48;;;;;;;12.80;6.70;;;7.30;99.90;;;;;;5098909;28;20048;-68
2023/01/09 12:36:50;;;;;;;11.50;7.43;;;7.30;99.90;;;;;;5091603;28;20290;-68
2023/01/09 12:39:16;;;;;;;10.15;6.65;;;7.40;99.90;;;;;;5098384;28;20059;-69
2023/01/09 12:42:14;;;;;;;11.07;7.60;;;7.40;99.90;;;;;;5100532;28;20054;-69
2023/01/09 12:44:59;;;;;;;15.23;7.63;;;7.50;99.90;;;;;;5076078;28;20040;-68
2023/01/09 12:47:45;;;;;;;12.97;7.43;;;7.50;99.90;;;;;;5100074;28;20085;-69
2023/01/09 12:50:29;;;;;;;9.73;6.93;;;7.50;99.90;;;;;;5099273;28;20051;-68
2023/01/09 12:53:14;;;;;;;12.43;7.83;;;7.50;99.90;;;;;;5101849;28;20070;-68
2023/01/09 12:56:00;;;;;;;10.17;6.93;;;7.50;99.90;;;;;;5100476;28;20047;-68
2023/01/09 12:58:31;;;;;;;14.57;7.47;;;7.50;99.90;;;;;;5100448;28;20044;-68
2023/01/09 13:01:01;;;;;;;12.63;7.50;;;7.50;99.90;;;;;;5100697;28;20052;-68
2023/01/09 13:03:57;;;;;;;10.23;7.80;;;7.50;99.90;;;;;;5081883;28;20047;-68
2023/01/09 13:06:25;;;;;;;10.50;7.67;;;7.50;99.90;;;;;;5112012;28;20489;-68
2023/01/09 13:09:13;;;;;;;10.60;7.67;;;7.60;99.90;;;;;;5100588;28;20051;-68
2023/01/09 13:12:21;;;;;;;10.17;7.10;;;7.60;99.90;;;;;;5097942;28;20040;-68
2023/01/09 13:15:04;;;;;;;12.33;7.50;;;7.50;99.90;;;;;;5100999;28;20452;-68
2023/01/09 13:17:42;;;;;;;9.47;7.50;;;7.50;99.90;;;;;;5100363;28;20059;-67
2023/01/09 13:20:44;;;;;;;10.67;7.67;;;7.50;99.90;;;;;;5099741;28;20048;-68
2023/01/09 13:23:45;;;;;;;12.32;7.68;;;7.50;99.90;;;;;;5099486;28;20050;-68
2023/01/09 13:26:27;;;;;;;10.37;7.53;;;7.50;99.90;;;;;;5100436;28;20090;-68